sensor_id;sensor_type;location;lat;lon;timestamp;temperature;humidity
5200;DHT22;2619;47.868;11.892;2023-08-08T00:01:18;9.40;99.90
5200;DHT22;2619;47.868;11.892;2023-08-08T00:03:46;9.50;99.90
5200;DHT22;2619;47.868;11.892;2023-08-08T00:06:11;9.50;99.90
5200;DHT22;2619;47.868;11.892;2023-08-08T00:08:37;9.50;99.90
5200;DHT22;2619;47.868;11.892;2023-08-08T00:11:03;9.50;99.90
5200;DHT22;2619;47.868;11.892;2023-08-08T00:13:28;9.50;99.90
5200;DHT22;2619;47.868;11.892;2023-08-08T00:15:54;9.50;99.90
5200;DHT22;2619;47.868;11.892;2023-08-08T00:18:19;9.60;99.90
5200;DHT22;2619;47.868;11.892;2023-08-08T00:20:45;9.60;99.90
5200;DHT22;2619;47.868;11.892;2023-08-08T00:23:10;9.60;99.90
5200;DHT22;2619;47.868;11.892;2023-08-08T00:25:36;9.60;99.90
5200;DHT22;2619;47.868;11.892;2023-08-08T00:28:03;9.60;99.90
5200;DHT22;2619;47.868;11.892;2023-08-08T00:30:28;9.60;99.90
5200;DHT22;2619;47.868;11.892;2023-08-08T00:32:54;9.60;99.90
5200;DHT22;2619;47.868;11.892;2023-08-08T00:35:19;9.60;99.90
5200;DHT22;2619;47.868;11.892;2023-08-08T00:37:45;9.70;99.90
5200;DHT22;2619;47.868;11.892;2023-08-08T00:40:10;9.70;99.90
5200;DHT22;2619;47.868;11.892;2023-08-08T00:42:36;9.80;99.90
5200;DHT22;2619;47.868;11.892;2023-08-08T00:45:02;9.80;99.90
5200;DHT22;2619;47.868;11.892;2023-08-08T00:47:31;9.90;99.90
5200;DHT22;2619;47.868;11.892;2023-08-08T00:49:57;9.90;99.90
5200;DHT22;2619;47.868;11.892;2023-08-08T00:52:22;9.90;99.90
5200;DHT22;2619;47.868;11.892;2023-08-08T00:54:48;10.00;99.90
5200;DHT22;2619;47.868;11.892;2023-08-08T00:57:14;10.00;99.90
5200;DHT22;2619;47.868;11.892;2023-08-08T00:59:39;10.00;99.90
5200;DHT22;2619;47.868;11.892;2023-08-08T01:02:05;10.00;99.90
5200;DHT22;2619;47.868;11.892;2023-08-08T01:04:31;10.00;99.90
5200;DHT22;2619;47.868;11.892;2023-08-08T01:07:25;10.00;99.90
5200;DHT22;2619;47.868;11.892;2023-08-08T01:09:57;10.00;99.90
5200;DHT22;2619;47.868;11.892;2023-08-08T01:12:29;10.00;99.90
5200;DHT22;2619;47.868;11.892;2023-08-08T01:14:56;10.00;99.90
5200;DHT22;2619;47.868;11.892;2023-08-08T01:17:22;10.00;99.90
5200;DHT22;2619;47.868;11.892;2023-08-08T01:19:49;9.90;99.90
5200;DHT22;2619;47.868;11.892;2023-08-08T01:22:23;9.80;99.90
5200;DHT22;2619;47.868;11.892;2023-08-08T01:24:50;10.00;99.90
5200;DHT22;2619;47.868;11.892;2023-08-08T01:27:16;10.00;99.90
5200;DHT22;2619;47.868;11.892;2023-08-08T01:29:42;10.10;99.90
5200;DHT22;2619;47.868;11.892;2023-08-08T01:32:07;10.10;99.90
5200;DHT22;2619;47.868;11.892;2023-08-08T01:34:34;10.20;99.90
5200;DHT22;2619;47.868;11.892;2023-08-08T01:37:15;10.20;99.90
5200;DHT22;2619;47.868;11.892;2023-08-08T01:39:43;10.30;99.90
5200;DHT22;2619;47.868;11.892;2023-08-08T01:42:12;10.40;99.90
5200;DHT22;2619;47.868;11.892;2023-08-08T01:44:39;10.40;99.90
5200;DHT22;2619;47.868;11.892;2023-08-08T01:47:06;10.40;99.90
5200;DHT22;2619;47.868;11.892;2023-08-08T01:49:32;10.40;99.90
5200;DHT22;2619;47.868;11.892;2023-08-08T01:51:57;10.50;99.90
5200;DHT22;2619;47.868;11.892;2023-08-08T01:54:23;10.50;99.90
5200;DHT22;2619;47.868;11.892;2023-08-08T01:56:49;10.50;99.90
5200;DHT22;2619;47.868;11.892;2023-08-08T01:59:14;10.50;99.90
5200;DHT22;2619;47.868;11.892;2023-08-08T02:01:40;10.60;99.90
5200;DHT22;2619;47.868;11.892;2023-08-08T02:04:05;10.60;99.90
5200;DHT22;2619;47.868;11.892;2023-08-08T02:06:31;10.70;99.90
5200;DHT22;2619;47.868;11.892;2023-08-08T02:08:57;10.60;99.90
5200;DHT22;2619;47.868;11.892;2023-08-08T02:11:23;10.60;99.90
5200;DHT22;2619;47.868;11.892;2023-08-08T02:13:48;10.60;99.90
5200;DHT22;2619;47.868;11.892;2023-08-08T02:16:14;10.60;99.90
5200;DHT22;2619;47.868;11.892;2023-08-08T02:18:39;10.50;99.90
5200;DHT22;2619;47.868;11.892;2023-08-08T02:21:07;10.50;99.90
5200;DHT22;2619;47.868;11.892;2023-08-08T02:23:33;10.50;99.90
5200;DHT22;2619;47.868;11.892;2023-08-08T02:25:59;10.50;99.90
5200;DHT22;2619;47.868;11.892;2023-08-08T02:28:24;10.50;99.90
5200;DHT22;2619;47.868;11.892;2023-08-08T02:30:50;10.40;99.90
5200;DHT22;2619;47.868;11.892;2023-08-08T02:33:16;10.30;99.90
5200;DHT22;2619;47.868;11.892;2023-08-08T02:35:41;10.30;99.90
5200;DHT22;2619;47.868;11.892;2023-08-08T02:38:07;10.20;99.90
5200;DHT22;2619;47.868;11.892;2023-08-08T02:40:32;10.20;99.90
5200;DHT22;2619;47.868;11.892;2023-08-08T02:42:59;10.20;99.90
5200;DHT22;2619;47.868;11.892;2023-08-08T02:45:24;10.10;99.90
5200;DHT22;2619;47.868;11.892;2023-08-08T02:47:50;10.10;99.90
5200;DHT22;2619;47.868;11.892;2023-08-08T02:50:16;10.00;99.90
5200;DHT22;2619;47.868;11.892;2023-08-08T02:52:41;10.00;99.90
5200;DHT22;2619;47.868;11.892;2023-08-08T02:55:07;10.00;99.90
5200;DHT22;2619;47.868;11.892;2023-08-08T02:57:33;9.90;99.90
5200;DHT22;2619;47.868;11.892;2023-08-08T02:59:58;9.80;99.90
5200;DHT22;2619;47.868;11.892;2023-08-08T03:02:24;9.80;99.90
5200;DHT22;2619;47.868;11.892;2023-08-08T03:04:49;9.70;99.90
5200;DHT22;2619;47.868;11.892;2023-08-08T03:07:15;9.60;99.90
5200;DHT22;2619;47.868;11.892;2023-08-08T03:09:41;9.60;99.90
5200;DHT22;2619;47.868;11.892;2023-08-08T03:12:07;9.50;99.90
5200;DHT22;2619;47.868;11.892;2023-08-08T03:14:32;9.50;99.90
5200;DHT22;2619;47.868;11.892;2023-08-08T03:16:59;9.40;99.90
5200;DHT22;2619;47.868;11.892;2023-08-08T03:19:24;9.30;99.90
5200;DHT22;2619;47.868;11.892;2023-08-08T03:21:50;9.30;99.90
5200;DHT22;2619;47.868;11.892;2023-08-08T03:24:15;9.30;99.90
5200;DHT22;2619;47.868;11.892;2023-08-08T03:26:41;9.30;99.90
5200;DHT22;2619;47.868;11.892;2023-08-08T03:29:06;9.40;99.90
5200;DHT22;2619;47.868;11.892;2023-08-08T03:31:35;9.40;99.90
5200;DHT22;2619;47.868;11.892;2023-08-08T03:34:01;9.40;99.90
5200;DHT22;2619;47.868;11.892;2023-08-08T03:36:26;9.50;99.90
5200;DHT22;2619;47.868;11.892;2023-08-08T03:38:52;9.50;99.90
5200;DHT22;2619;47.868;11.892;2023-08-08T03:41:17;9.50;99.90
5200;DHT22;2619;47.868;11.892;2023-08-08T03:43:43;9.50;99.90
5200;DHT22;2619;47.868;11.892;2023-08-08T03:46:08;9.50;99.90
5200;DHT22;2619;47.868;11.892;2023-08-08T03:48:34;9.50;99.90
5200;DHT22;2619;47.868;11.892;2023-08-08T03:51:00;9.40;99.90
5200;DHT22;2619;47.868;11.892;2023-08-08T03:53:25;9.30;99.90
5200;DHT22;2619;47.868;11.892;2023-08-08T03:55:51;9.20;99.90
5200;DHT22;2619;47.868;11.892;2023-08-08T03:58:17;9.20;99.90
5200;DHT22;2619;47.868;11.892;2023-08-08T04:00:43;9.20;99.90
5200;DHT22;2619;47.868;11.892;2023-08-08T04:03:15;9.20;99.90
5200;DHT22;2619;47.868;11.892;2023-08-08T04:05:43;9.20;99.90
5200;DHT22;2619;47.868;11.892;2023-08-08T04:08:11;9.20;99.90
5200;DHT22;2619;47.868;11.892;2023-08-08T04:10:37;9.20;99.90
5200;DHT22;2619;47.868;11.892;2023-08-08T04:13:02;9.20;99.90
5200;DHT22;2619;47.868;11.892;2023-08-08T04:15:28;9.30;99.90
5200;DHT22;2619;47.868;11.892;2023-08-08T04:17:54;9.40;99.90
5200;DHT22;2619;47.868;11.892;2023-08-08T04:20:19;9.50;99.90
5200;DHT22;2619;47.868;11.892;2023-08-08T04:22:45;9.60;99.90
5200;DHT22;2619;47.868;11.892;2023-08-08T04:25:11;9.70;99.90
5200;DHT22;2619;47.868;11.892;2023-08-08T04:27:36;9.90;99.90
5200;DHT22;2619;47.868;11.892;2023-08-08T04:30:02;10.00;99.90
5200;DHT22;2619;47.868;11.892;2023-08-08T04:32:28;10.00;99.90
5200;DHT22;2619;47.868;11.892;2023-08-08T04:34:54;10.00;99.90
5200;DHT22;2619;47.868;11.892;2023-08-08T04:37:19;10.10;99.90
5200;DHT22;2619;47.868;11.892;2023-08-08T04:39:45;10.20;99.90
5200;DHT22;2619;47.868;11.892;2023-08-08T04:42:11;10.20;99.90
5200;DHT22;2619;47.868;11.892;2023-08-08T04:44:36;10.30;99.90
5200;DHT22;2619;47.868;11.892;2023-08-08T04:47:02;10.40;99.90
5200;DHT22;2619;47.868;11.892;2023-08-08T04:49:27;10.50;99.90
5200;DHT22;2619;47.868;11.892;2023-08-08T04:51:54;10.50;99.90
5200;DHT22;2619;47.868;11.892;2023-08-08T04:54:19;10.60;99.90
5200;DHT22;2619;47.868;11.892;2023-08-08T04:56:45;10.60;99.90
5200;DHT22;2619;47.868;11.892;2023-08-08T04:59:12;10.70;99.90
5200;DHT22;2619;47.868;11.892;2023-08-08T05:01:37;10.70;99.90
5200;DHT22;2619;47.868;11.892;2023-08-08T05:04:03;10.70;99.90
5200;DHT22;2619;47.868;11.892;2023-08-08T05:06:28;10.80;99.90
5200;DHT22;2619;47.868;11.892;2023-08-08T05:08:54;10.90;99.90
5200;DHT22;2619;47.868;11.892;2023-08-08T05:11:22;11.10;99.90
5200;DHT22;2619;47.868;11.892;2023-08-08T05:13:47;11.20;99.90
5200;DHT22;2619;47.868;11.892;2023-08-08T05:16:13;11.30;99.90
5200;DHT22;2619;47.868;11.892;2023-08-08T05:18:39;11.30;99.90
5200;DHT22;2619;47.868;11.892;2023-08-08T05:21:04;11.40;99.90
5200;DHT22;2619;47.868;11.892;2023-08-08T05:23:30;11.50;99.90
5200;DHT22;2619;47.868;11.892;2023-08-08T05:25:55;11.60;99.90
5200;DHT22;2619;47.868;11.892;2023-08-08T05:28:21;11.60;99.90
5200;DHT22;2619;47.868;11.892;2023-08-08T05:30:46;11.60;99.90
5200;DHT22;2619;47.868;11.892;2023-08-08T05:33:13;11.70;99.90
5200;DHT22;2619;47.868;11.892;2023-08-08T05:35:38;11.80;99.90
5200;DHT22;2619;47.868;11.892;2023-08-08T05:38:04;11.80;99.90
5200;DHT22;2619;47.868;11.892;2023-08-08T05:40:29;11.80;99.90
5200;DHT22;2619;47.868;11.892;2023-08-08T05:42:55;11.80;99.90
5200;DHT22;2619;47.868;11.892;2023-08-08T05:45:20;11.70;99.90
5200;DHT22;2619;47.868;11.892;2023-08-08T05:47:46;11.80;99.90
5200;DHT22;2619;47.868;11.892;2023-08-08T05:50:11;11.90;99.90
5200;DHT22;2619;47.868;11.892;2023-08-08T05:52:37;12.10;99.90
5200;DHT22;2619;47.868;11.892;2023-08-08T05:55:03;12.40;99.90
5200;DHT22;2619;47.868;11.892;2023-08-08T05:57:28;12.80;99.90
5200;DHT22;2619;47.868;11.892;2023-08-08T05:59:54;13.20;99.90
5200;DHT22;2619;47.868;11.892;2023-08-08T06:02:19;13.50;99.90
5200;DHT22;2619;47.868;11.892;2023-08-08T06:04:45;13.80;99.90
5200;DHT22;2619;47.868;11.892;2023-08-08T06:07:11;14.20;99.90
5200;DHT22;2619;47.868;11.892;2023-08-08T06:09:36;14.40;99.90
5200;DHT22;2619;47.868;11.892;2023-08-08T06:12:06;14.60;99.90
5200;DHT22;2619;47.868;11.892;2023-08-08T06:14:31;14.70;99.90
5200;DHT22;2619;47.868;11.892;2023-08-08T06:16:57;14.90;99.90
5200;DHT22;2619;47.868;11.892;2023-08-08T06:19:22;15.00;99.90
5200;DHT22;2619;47.868;11.892;2023-08-08T06:21:48;15.10;99.90
5200;DHT22;2619;47.868;11.892;2023-08-08T06:24:14;15.30;99.90
5200;DHT22;2619;47.868;11.892;2023-08-08T06:26:40;15.50;99.90
5200;DHT22;2619;47.868;11.892;2023-08-08T06:29:05;15.90;99.90
5200;DHT22;2619;47.868;11.892;2023-08-08T06:31:31;16.20;99.90
5200;DHT22;2619;47.868;11.892;2023-08-08T06:33:56;16.70;99.90
5200;DHT22;2619;47.868;11.892;2023-08-08T06:36:22;17.40;99.90
5200;DHT22;2619;47.868;11.892;2023-08-08T06:38:48;18.30;99.90
5200;DHT22;2619;47.868;11.892;2023-08-08T06:41:13;19.00;99.90
5200;DHT22;2619;47.868;11.892;2023-08-08T06:43:39;19.20;99.90
5200;DHT22;2619;47.868;11.892;2023-08-08T06:46:05;19.40;99.90
5200;DHT22;2619;47.868;11.892;2023-08-08T06:48:30;19.70;99.90
5200;DHT22;2619;47.868;11.892;2023-08-08T06:50:56;20.20;99.90
5200;DHT22;2619;47.868;11.892;2023-08-08T06:53:23;20.60;99.90
5200;DHT22;2619;47.868;11.892;2023-08-08T06:55:48;20.50;99.90
5200;DHT22;2619;47.868;11.892;2023-08-08T06:58:14;20.70;99.90
5200;DHT22;2619;47.868;11.892;2023-08-08T07:00:39;20.60;99.90
5200;DHT22;2619;47.868;11.892;2023-08-08T07:03:05;20.50;99.90
5200;DHT22;2619;47.868;11.892;2023-08-08T07:05:31;20.30;99.90
5200;DHT22;2619;47.868;11.892;2023-08-08T07:07:57;20.20;99.90
5200;DHT22;2619;47.868;11.892;2023-08-08T07:10:22;19.90;99.90
5200;DHT22;2619;47.868;11.892;2023-08-08T07:12:48;19.90;99.90
5200;DHT22;2619;47.868;11.892;2023-08-08T07:15:14;20.20;99.90
5200;DHT22;2619;47.868;11.892;2023-08-08T07:17:40;20.20;99.90
5200;DHT22;2619;47.868;11.892;2023-08-08T07:20:06;20.00;99.90
5200;DHT22;2619;47.868;11.892;2023-08-08T07:22:32;19.80;99.90
5200;DHT22;2619;47.868;11.892;2023-08-08T07:24:58;19.70;99.90
5200;DHT22;2619;47.868;11.892;2023-08-08T07:27:27;19.70;99.90
5200;DHT22;2619;47.868;11.892;2023-08-08T07:29:53;19.70;99.90
5200;DHT22;2619;47.868;11.892;2023-08-08T07:32:18;19.70;99.90
5200;DHT22;2619;47.868;11.892;2023-08-08T07:34:44;19.60;99.90
5200;DHT22;2619;47.868;11.892;2023-08-08T07:37:09;19.60;99.90
5200;DHT22;2619;47.868;11.892;2023-08-08T07:39:35;19.70;99.90
5200;DHT22;2619;47.868;11.892;2023-08-08T07:42:01;19.90;99.90
5200;DHT22;2619;47.868;11.892;2023-08-08T07:44:26;19.80;99.90
5200;DHT22;2619;47.868;11.892;2023-08-08T07:46:52;19.80;99.90
5200;DHT22;2619;47.868;11.892;2023-08-08T07:49:17;19.80;99.90
5200;DHT22;2619;47.868;11.892;2023-08-08T07:51:43;19.80;99.90
5200;DHT22;2619;47.868;11.892;2023-08-08T07:54:08;19.90;99.90
5200;DHT22;2619;47.868;11.892;2023-08-08T07:56:36;19.80;99.90
5200;DHT22;2619;47.868;11.892;2023-08-08T07:59:02;19.90;99.90
5200;DHT22;2619;47.868;11.892;2023-08-08T08:01:28;19.80;99.90
5200;DHT22;2619;47.868;11.892;2023-08-08T08:03:54;19.90;99.90
5200;DHT22;2619;47.868;11.892;2023-08-08T08:06:20;19.60;99.90
5200;DHT22;2619;47.868;11.892;2023-08-08T08:08:45;19.70;99.90
5200;DHT22;2619;47.868;11.892;2023-08-08T08:11:11;19.70;99.90
5200;DHT22;2619;47.868;11.892;2023-08-08T08:13:38;19.70;99.90
5200;DHT22;2619;47.868;11.892;2023-08-08T08:16:04;19.70;99.90
5200;DHT22;2619;47.868;11.892;2023-08-08T08:18:30;19.90;99.90
5200;DHT22;2619;47.868;11.892;2023-08-08T08:20:56;20.00;99.90
5200;DHT22;2619;47.868;11.892;2023-08-08T08:23:21;19.90;99.90
5200;DHT22;2619;47.868;11.892;2023-08-08T08:25:47;20.00;99.90
5200;DHT22;2619;47.868;11.892;2023-08-08T08:28:14;20.00;99.90
5200;DHT22;2619;47.868;11.892;2023-08-08T08:30:40;20.20;99.90
5200;DHT22;2619;47.868;11.892;2023-08-08T08:33:05;20.30;99.90
5200;DHT22;2619;47.868;11.892;2023-08-08T08:35:33;20.30;99.90
5200;DHT22;2619;47.868;11.892;2023-08-08T08:37:59;20.30;99.90
5200;DHT22;2619;47.868;11.892;2023-08-08T08:40:25;20.50;99.90
5200;DHT22;2619;47.868;11.892;2023-08-08T08:42:52;20.60;99.90
5200;DHT22;2619;47.868;11.892;2023-08-08T08:45:20;20.60;99.90
5200;DHT22;2619;47.868;11.892;2023-08-08T08:47:46;20.60;99.90
5200;DHT22;2619;47.868;11.892;2023-08-08T08:50:15;20.90;99.90
5200;DHT22;2619;47.868;11.892;2023-08-08T08:52:41;20.90;99.90
5200;DHT22;2619;47.868;11.892;2023-08-08T08:55:08;20.80;99.90
5200;DHT22;2619;47.868;11.892;2023-08-08T08:57:34;21.00;99.90
5200;DHT22;2619;47.868;11.892;2023-08-08T09:00:00;21.10;98.70
5200;DHT22;2619;47.868;11.892;2023-08-08T09:02:25;21.00;99.90
5200;DHT22;2619;47.868;11.892;2023-08-08T09:04:51;21.10;99.90
5200;DHT22;2619;47.868;11.892;2023-08-08T09:07:19;21.00;99.90
5200;DHT22;2619;47.868;11.892;2023-08-08T09:09:45;20.70;98.70
5200;DHT22;2619;47.868;11.892;2023-08-08T09:12:11;20.50;98.30
5200;DHT22;2619;47.868;11.892;2023-08-08T09:14:41;20.40;98.70
5200;DHT22;2619;47.868;11.892;2023-08-08T09:17:14;20.30;99.90
5200;DHT22;2619;47.868;11.892;2023-08-08T09:19:46;20.50;99.90
5200;DHT22;2619;47.868;11.892;2023-08-08T09:22:13;20.60;99.60
5200;DHT22;2619;47.868;11.892;2023-08-08T09:24:39;20.50;99.20
5200;DHT22;2619;47.868;11.892;2023-08-08T09:27:07;20.50;99.10
5200;DHT22;2619;47.868;11.892;2023-08-08T09:29:33;20.30;97.30
5200;DHT22;2619;47.868;11.892;2023-08-08T09:31:59;20.50;99.50
5200;DHT22;2619;47.868;11.892;2023-08-08T09:34:25;20.50;99.20
5200;DHT22;2619;47.868;11.892;2023-08-08T09:36:52;20.60;99.40
5200;DHT22;2619;47.868;11.892;2023-08-08T09:39:18;20.80;99.60
5200;DHT22;2619;47.868;11.892;2023-08-08T09:41:46;21.10;99.90
5200;DHT22;2619;47.868;11.892;2023-08-08T09:44:12;21.10;99.60
5200;DHT22;2619;47.868;11.892;2023-08-08T09:46:39;21.30;98.10
5200;DHT22;2619;47.868;11.892;2023-08-08T09:49:06;21.40;99.90
5200;DHT22;2619;47.868;11.892;2023-08-08T09:51:32;21.30;96.90
5200;DHT22;2619;47.868;11.892;2023-08-08T09:53:59;21.40;98.10
5200;DHT22;2619;47.868;11.892;2023-08-08T09:56:25;21.80;99.90
5200;DHT22;2619;47.868;11.892;2023-08-08T09:58:52;21.90;97.10
5200;DHT22;2619;47.868;11.892;2023-08-08T10:01:19;21.70;99.30
5200;DHT22;2619;47.868;11.892;2023-08-08T10:03:45;21.60;97.10
5200;DHT22;2619;47.868;11.892;2023-08-08T10:06:11;21.50;98.00
5200;DHT22;2619;47.868;11.892;2023-08-08T10:08:36;21.70;97.80
5200;DHT22;2619;47.868;11.892;2023-08-08T10:11:03;21.60;96.50
5200;DHT22;2619;47.868;11.892;2023-08-08T10:13:30;21.60;96.10
5200;DHT22;2619;47.868;11.892;2023-08-08T10:15:56;21.80;97.90
5200;DHT22;2619;47.868;11.892;2023-08-08T10:18:22;21.90;96.70
5200;DHT22;2619;47.868;11.892;2023-08-08T10:20:49;22.10;98.10
5200;DHT22;2619;47.868;11.892;2023-08-08T10:23:16;22.40;97.90
5200;DHT22;2619;47.868;11.892;2023-08-08T10:25:46;22.60;99.00
5200;DHT22;2619;47.868;11.892;2023-08-08T10:28:14;22.50;96.00
5200;DHT22;2619;47.868;11.892;2023-08-08T10:30:53;22.50;97.60
5200;DHT22;2619;47.868;11.892;2023-08-08T10:33:26;22.60;94.90
5200;DHT22;2619;47.868;11.892;2023-08-08T10:38:24;21.90;95.70
5200;DHT22;2619;47.868;11.892;2023-08-08T10:40:59;21.90;96.40
5200;DHT22;2619;47.868;11.892;2023-08-08T10:43:27;21.70;95.90
5200;DHT22;2619;47.868;11.892;2023-08-08T10:45:57;22.00;96.80
5200;DHT22;2619;47.868;11.892;2023-08-08T10:48:23;22.00;96.20
5200;DHT22;2619;47.868;11.892;2023-08-08T10:50:49;22.20;96.00
5200;DHT22;2619;47.868;11.892;2023-08-08T10:53:15;22.60;97.50
5200;DHT22;2619;47.868;11.892;2023-08-08T10:55:42;22.80;96.30
5200;DHT22;2619;47.868;11.892;2023-08-08T10:58:12;23.20;97.60
5200;DHT22;2619;47.868;11.892;2023-08-08T11:00:40;23.70;97.80
5200;DHT22;2619;47.868;11.892;2023-08-08T11:03:07;23.70;94.20
5200;DHT22;2619;47.868;11.892;2023-08-08T11:05:35;23.80;96.60
5200;DHT22;2619;47.868;11.892;2023-08-08T11:08:02;23.70;94.10
5200;DHT22;2619;47.868;11.892;2023-08-08T11:10:29;23.60;94.10
5200;DHT22;2619;47.868;11.892;2023-08-08T11:13:06;23.60;95.00
5200;DHT22;2619;47.868;11.892;2023-08-08T11:15:33;23.70;94.10
5200;DHT22;2619;47.868;11.892;2023-08-08T11:18:00;23.60;96.80
5200;DHT22;2619;47.868;11.892;2023-08-08T11:20:29;23.90;95.70
5200;DHT22;2619;47.868;11.892;2023-08-08T11:22:56;23.80;93.90
5200;DHT22;2619;47.868;11.892;2023-08-08T11:25:22;23.60;94.10
5200;DHT22;2619;47.868;11.892;2023-08-08T11:27:52;23.40;93.60
5200;DHT22;2619;47.868;11.892;2023-08-08T11:30:18;23.40;93.20
5200;DHT22;2619;47.868;11.892;2023-08-08T11:32:45;23.30;93.60
5200;DHT22;2619;47.868;11.892;2023-08-08T11:35:12;23.40;93.80
5200;DHT22;2619;47.868;11.892;2023-08-08T11:37:37;23.70;92.80
5200;DHT22;2619;47.868;11.892;2023-08-08T11:40:04;23.60;93.30
5200;DHT22;2619;47.868;11.892;2023-08-08T11:42:31;23.60;92.20
5200;DHT22;2619;47.868;11.892;2023-08-08T11:44:57;23.70;94.70
5200;DHT22;2619;47.868;11.892;2023-08-08T11:47:26;23.90;94.80
5200;DHT22;2619;47.868;11.892;2023-08-08T11:49:53;23.60;92.90
5200;DHT22;2619;47.868;11.892;2023-08-08T11:52:19;23.70;93.00
5200;DHT22;2619;47.868;11.892;2023-08-08T11:54:51;23.80;94.20
5200;DHT22;2619;47.868;11.892;2023-08-08T11:57:17;23.90;91.50
5200;DHT22;2619;47.868;11.892;2023-08-08T11:59:43;23.90;92.60
5200;DHT22;2619;47.868;11.892;2023-08-08T12:02:09;23.90;91.50
5200;DHT22;2619;47.868;11.892;2023-08-08T12:04:35;24.00;92.30
5200;DHT22;2619;47.868;11.892;2023-08-08T12:07:02;23.90;93.50
5200;DHT22;2619;47.868;11.892;2023-08-08T12:09:31;24.00;93.80
5200;DHT22;2619;47.868;11.892;2023-08-08T12:12:00;23.80;92.00
5200;DHT22;2619;47.868;11.892;2023-08-08T12:14:25;23.70;91.90
5200;DHT22;2619;47.868;11.892;2023-08-08T12:16:51;23.70;92.40
5200;DHT22;2619;47.868;11.892;2023-08-08T12:19:23;23.60;92.20
5200;DHT22;2619;47.868;11.892;2023-08-08T12:21:49;23.40;91.10
5200;DHT22;2619;47.868;11.892;2023-08-08T12:24:14;22.70;87.80
5200;DHT22;2619;47.868;11.892;2023-08-08T12:26:40;22.70;90.50
5200;DHT22;2619;47.868;11.892;2023-08-08T12:29:05;23.10;92.80
5200;DHT22;2619;47.868;11.892;2023-08-08T12:31:31;23.10;90.20
5200;DHT22;2619;47.868;11.892;2023-08-08T12:33:56;22.90;91.50
5200;DHT22;2619;47.868;11.892;2023-08-08T12:36:22;23.00;92.10
5200;DHT22;2619;47.868;11.892;2023-08-08T12:38:48;22.90;91.60
5200;DHT22;2619;47.868;11.892;2023-08-08T12:41:13;23.00;94.00
5200;DHT22;2619;47.868;11.892;2023-08-08T12:43:39;23.20;92.80
5200;DHT22;2619;47.868;11.892;2023-08-08T12:46:05;23.50;92.80
5200;DHT22;2619;47.868;11.892;2023-08-08T12:48:31;23.30;90.80
5200;DHT22;2619;47.868;11.892;2023-08-08T12:50:56;23.40;92.50
5200;DHT22;2619;47.868;11.892;2023-08-08T12:53:22;23.60;92.50
5200;DHT22;2619;47.868;11.892;2023-08-08T12:55:47;23.70;91.90
5200;DHT22;2619;47.868;11.892;2023-08-08T12:58:13;23.80;92.80
5200;DHT22;2619;47.868;11.892;2023-08-08T13:00:39;23.80;92.30
5200;DHT22;2619;47.868;11.892;2023-08-08T13:03:05;23.90;92.00
5200;DHT22;2619;47.868;11.892;2023-08-08T13:05:30;23.90;90.50
5200;DHT22;2619;47.868;11.892;2023-08-08T13:07:56;24.10;93.80
5200;DHT22;2619;47.868;11.892;2023-08-08T13:10:21;24.10;91.70
5200;DHT22;2619;47.868;11.892;2023-08-08T13:12:47;24.10;92.00
5200;DHT22;2619;47.868;11.892;2023-08-08T13:15:13;23.90;90.30
5200;DHT22;2619;47.868;11.892;2023-08-08T13:17:39;23.90;91.00
5200;DHT22;2619;47.868;11.892;2023-08-08T13:20:05;23.80;90.80
5200;DHT22;2619;47.868;11.892;2023-08-08T13:22:31;23.60;92.50
5200;DHT22;2619;47.868;11.892;2023-08-08T13:24:56;23.70;91.40
5200;DHT22;2619;47.868;11.892;2023-08-08T13:27:22;23.30;89.20
5200;DHT22;2619;47.868;11.892;2023-08-08T13:29:47;23.20;92.30
5200;DHT22;2619;47.868;11.892;2023-08-08T13:32:13;23.20;90.30
5200;DHT22;2619;47.868;11.892;2023-08-08T13:34:39;23.10;90.10
5200;DHT22;2619;47.868;11.892;2023-08-08T13:37:05;23.10;91.00
5200;DHT22;2619;47.868;11.892;2023-08-08T13:39:31;23.20;90.50
5200;DHT22;2619;47.868;11.892;2023-08-08T13:41:56;23.20;89.10
5200;DHT22;2619;47.868;11.892;2023-08-08T13:44:22;23.00;91.10
5200;DHT22;2619;47.868;11.892;2023-08-08T13:46:47;22.80;90.90
5200;DHT22;2619;47.868;11.892;2023-08-08T13:49:13;22.90;91.20
5200;DHT22;2619;47.868;11.892;2023-08-08T13:51:39;23.00;90.40
5200;DHT22;2619;47.868;11.892;2023-08-08T13:54:04;23.10;90.40
5200;DHT22;2619;47.868;11.892;2023-08-08T13:56:30;23.10;90.70
5200;DHT22;2619;47.868;11.892;2023-08-08T13:58:55;23.00;88.80
5200;DHT22;2619;47.868;11.892;2023-08-08T14:01:21;22.90;90.00
5200;DHT22;2619;47.868;11.892;2023-08-08T14:03:46;22.60;87.00
5200;DHT22;2619;47.868;11.892;2023-08-08T14:06:12;22.60;89.30
5200;DHT22;2619;47.868;11.892;2023-08-08T14:08:38;22.80;91.20
5200;DHT22;2619;47.868;11.892;2023-08-08T14:11:03;22.80;87.60
5200;DHT22;2619;47.868;11.892;2023-08-08T14:13:29;22.90;91.20
5200;DHT22;2619;47.868;11.892;2023-08-08T14:15:54;23.00;89.30
5200;DHT22;2619;47.868;11.892;2023-08-08T14:18:20;23.00;90.70
5200;DHT22;2619;47.868;11.892;2023-08-08T14:20:45;23.00;86.60
5200;DHT22;2619;47.868;11.892;2023-08-08T14:23:11;22.90;90.60
5200;DHT22;2619;47.868;11.892;2023-08-08T14:25:36;22.90;90.90
5200;DHT22;2619;47.868;11.892;2023-08-08T14:28:02;22.70;89.90
5200;DHT22;2619;47.868;11.892;2023-08-08T14:30:29;22.40;89.60
5200;DHT22;2619;47.868;11.892;2023-08-08T14:32:55;22.30;88.10
5200;DHT22;2619;47.868;11.892;2023-08-08T14:35:21;22.40;90.70
5200;DHT22;2619;47.868;11.892;2023-08-08T14:37:47;22.30;85.40
5200;DHT22;2619;47.868;11.892;2023-08-08T14:40:12;22.30;90.20
5200;DHT22;2619;47.868;11.892;2023-08-08T14:42:38;22.50;90.30
5200;DHT22;2619;47.868;11.892;2023-08-08T14:45:04;22.70;89.10
5200;DHT22;2619;47.868;11.892;2023-08-08T14:47:31;22.50;86.00
5200;DHT22;2619;47.868;11.892;2023-08-08T14:49:56;22.50;89.30
5200;DHT22;2619;47.868;11.892;2023-08-08T14:52:22;22.90;88.50
5200;DHT22;2619;47.868;11.892;2023-08-08T14:54:48;23.20;90.00
5200;DHT22;2619;47.868;11.892;2023-08-08T14:57:15;23.10;85.60
5200;DHT22;2619;47.868;11.892;2023-08-08T14:59:40;23.10;87.10
5200;DHT22;2619;47.868;11.892;2023-08-08T15:02:06;23.00;86.70
5200;DHT22;2619;47.868;11.892;2023-08-08T15:04:32;22.90;86.40
5200;DHT22;2619;47.868;11.892;2023-08-08T15:06:58;22.90;90.80
5200;DHT22;2619;47.868;11.892;2023-08-08T15:09:24;22.90;90.10
5200;DHT22;2619;47.868;11.892;2023-08-08T15:11:49;22.90;83.80
5200;DHT22;2619;47.868;11.892;2023-08-08T15:14:16;22.70;89.50
5200;DHT22;2619;47.868;11.892;2023-08-08T15:16:41;22.70;90.90
5200;DHT22;2619;47.868;11.892;2023-08-08T15:19:07;22.60;87.90
5200;DHT22;2619;47.868;11.892;2023-08-08T15:21:33;22.40;88.60
5200;DHT22;2619;47.868;11.892;2023-08-08T15:23:58;22.30;88.70
5200;DHT22;2619;47.868;11.892;2023-08-08T15:26:24;22.20;86.00
5200;DHT22;2619;47.868;11.892;2023-08-08T15:28:50;22.20;88.90
5200;DHT22;2619;47.868;11.892;2023-08-08T15:31:15;22.20;87.40
5200;DHT22;2619;47.868;11.892;2023-08-08T15:33:42;22.00;89.20
5200;DHT22;2619;47.868;11.892;2023-08-08T15:36:08;22.00;85.40
5200;DHT22;2619;47.868;11.892;2023-08-08T15:38:33;21.80;87.30
5200;DHT22;2619;47.868;11.892;2023-08-08T15:40:59;21.80;85.40
5200;DHT22;2619;47.868;11.892;2023-08-08T15:43:26;21.90;88.70